Terminal Aerodrome Forecast
Issued by NWS Sioux Falls, SD

Home | Current Version | Previous Version | Graphics & Text | Print | Product List | Glossary On
Versions: 1 2 3 4 5 6 7 8 9 10 11 12 13 14
310
FTUS43 KFSD 251120
TAFHON
TAF
KHON 251120Z 2512/2612 28004KT P6SM SKC
     FM251700 23010KT P6SM SKC
     FM260100 19007KT P6SM SCT250=

USA.gov is the U.S. government's official web portal to all federal, state and local government web resources and services.